Time;durP1;ratioP1;P1;durP2;ratioP2;P2;SDS_P1;SDS_P2;PMS_P1;PMS_P2;Temp;Humidity;BMP_temperature;BMP_pressure;BME280_temperature;BME280_humidity;BME280_pressure;Samples;Min_cycle;Max_cycle;Signal;HPM_P1;HPM_P2
2024/01/29 00:01:00;;;;;;;18.17;9.00;;;;;;;-0.50;100.00;97679.09;5076952;28;20222;-68
2024/01/29 00:03:26;;;;;;;18.60;8.97;;;;;;;-0.50;100.00;97673.06;5077591;28;20586;-68
2024/01/29 00:05:53;;;;;;;20.03;8.90;;;;;;;-0.38;100.00;97675.88;5077983;28;20206;-68
2024/01/29 00:08:19;;;;;;;20.53;9.17;;;;;;;-0.32;100.00;97666.97;5076942;28;20314;-68
2024/01/29 00:10:46;;;;;;;21.03;10.17;;;;;;;-0.30;100.00;97667.75;5077140;28;20203;-68
2024/01/29 00:13:14;;;;;;;21.17;9.50;;;;;;;-0.29;100.00;97672.84;5077502;28;20213;-68
2024/01/29 00:15:41;;;;;;;22.83;9.37;;;;;;;-0.52;100.00;97674.91;5077783;28;20204;-68
2024/01/29 00:18:07;;;;;;;17.80;8.90;;;;;;;-0.50;100.00;97668.75;5076705;28;20200;-68
2024/01/29 00:20:34;;;;;;;17.47;9.60;;;;;;;-0.53;100.00;97673.22;5077359;28;20224;-68
2024/01/29 00:23:00;;;;;;;22.20;10.27;;;;;;;-0.60;100.00;97672.69;5077813;28;20206;-68
2024/01/29 00:25:27;;;;;;;20.53;9.67;;;;;;;-0.64;100.00;97670.31;5076997;28;20208;-68
2024/01/29 00:27:53;;;;;;;18.93;8.63;;;;;;;-0.52;100.00;97677.50;5077315;28;20427;-68
2024/01/29 00:30:22;;;;;;;18.80;8.07;;;;;;;-0.44;100.00;97670.19;5077633;28;20240;-68
2024/01/29 00:32:47;;;;;;;18.53;8.80;;;;;;;-0.58;100.00;97664.84;5076419;28;20222;-68
2024/01/29 00:35:14;;;;;;;19.43;9.50;;;;;;;-0.64;100.00;97665.13;5076833;28;20652;-68
2024/01/29 00:37:40;;;;;;;19.10;9.43;;;;;;;-0.58;100.00;97665.66;5077559;28;20219;-68
2024/01/29 00:40:08;;;;;;;22.23;9.57;;;;;;;-0.45;100.00;97660.72;5076450;28;20736;-68
2024/01/29 00:42:35;;;;;;;19.20;9.10;;;;;;;-0.47;100.00;97657.38;5076719;28;20237;-68
2024/01/29 00:45:02;;;;;;;21.30;9.57;;;;;;;-0.49;100.00;97659.22;5077163;28;20567;-68
2024/01/29 00:47:30;;;;;;;18.90;8.10;;;;;;;-0.44;100.00;97660.66;5076474;28;20364;-68
2024/01/29 00:49:57;;;;;;;18.10;8.40;;;;;;;-0.76;100.00;97657.97;5075687;28;20221;-68
2024/01/29 00:52:23;;;;;;;19.17;8.90;;;;;;;-0.72;100.00;97664.69;5077100;28;20587;-68
2024/01/29 00:54:50;;;;;;;18.23;9.13;;;;;;;-0.78;100.00;97653.78;5077411;28;20581;-68
2024/01/29 00:57:16;;;;;;;22.53;9.37;;;;;;;-0.81;100.00;97666.88;5076349;28;20207;-68
2024/01/29 00:59:43;;;;;;;18.00;8.23;;;;;;;-0.85;100.00;97665.34;5076828;28;20226;-68
2024/01/29 01:02:10;;;;;;;19.43;9.37;;;;;;;-0.72;100.00;97658.69;5076434;28;20226;-68
2024/01/29 01:04:38;;;;;;;17.13;7.47;;;;;;;-0.66;100.00;97660.94;5076092;28;20595;-68
2024/01/29 01:07:05;;;;;;;19.17;8.90;;;;;;;-0.73;100.00;97660.41;5076524;28;20210;-68
2024/01/29 01:09:31;;;;;;;16.50;7.87;;;;;;;-0.82;100.00;97662.63;5077039;28;20235;-68
2024/01/29 01:11:58;;;;;;;17.87;8.87;;;;;;;-0.84;100.00;97673.06;5076120;28;20681;-68
2024/01/29 01:14:24;;;;;;;18.80;9.33;;;;;;;-0.77;100.00;97664.06;5076925;28;20206;-68
2024/01/29 01:16:51;;;;;;;20.90;8.63;;;;;;;-0.73;100.00;97667.34;5076103;28;20205;-68
2024/01/29 01:19:17;;;;;;;17.10;8.13;;;;;;;-0.62;100.00;97663.31;5075649;28;20594;-68
2024/01/29 01:21:45;;;;;;;20.93;8.97;;;;;;;-0.47;100.00;97663.41;5076730;28;20223;-68
2024/01/29 01:24:12;;;;;;;19.57;8.73;;;;;;;-0.58;100.00;97670.03;5076359;28;20294;-68
2024/01/29 01:26:38;;;;;;;14.47;7.57;;;;;;;-0.72;100.00;97667.28;5075925;28;20213;-68
2024/01/29 01:29:05;;;;;;;14.37;6.93;;;;;;;-0.95;100.00;97664.13;5075574;28;20235;-68
2024/01/29 01:31:31;;;;;;;16.63;8.13;;;;;;;-0.98;100.00;97674.59;5075808;28;20201;-68
2024/01/29 01:33:58;;;;;;;21.00;9.23;;;;;;;-0.88;100.00;97671.53;5076727;28;20226;-68
2024/01/29 01:36:24;;;;;;;19.63;8.60;;;;;;;-0.98;100.00;97672.88;5076330;28;20675;-68
2024/01/29 01:38:52;;;;;;;19.20;8.73;;;;;;;-0.87;100.00;97662.81;5075044;28;20242;-68
2024/01/29 01:41:19;;;;;;;17.13;8.17;;;;;;;-0.98;100.00;97670.28;5076096;28;20243;-68
2024/01/29 01:43:45;;;;;;;17.77;8.70;;;;;;;-1.01;100.00;97670.41;5076944;28;20210;-68
2024/01/29 01:46:21;;;;;;;20.87;8.20;;;;;;;-0.83;100.00;97672.13;5076088;28;20206;-68
2024/01/29 01:48:50;;;;;;;23.30;8.60;;;;;;;-0.83;100.00;97669.53;5074972;28;20230;-68
2024/01/29 01:51:17;;;;;;;18.67;8.57;;;;;;;-1.00;100.00;97672.09;5076836;28;20214;-68
2024/01/29 01:53:45;;;;;;;17.47;8.50;;;;;;;-0.78;100.00;97664.97;5076909;28;20213;-68
2024/01/29 01:56:15;;;;;;;22.27;9.00;;;;;;;-0.74;100.00;97665.66;5076418;28;20211;-68
2024/01/29 01:58:42;;;;;;;19.73;9.07;;;;;;;-0.89;100.00;97668.97;5076602;28;20222;-68
2024/01/29 02:01:09;;;;;;;19.17;8.70;;;;;;;-0.98;100.00;97670.28;5077832;28;20226;-68
2024/01/29 02:03:36;;;;;;;19.43;8.27;;;;;;;-0.98;100.00;97665.09;5079616;28;20888;-68
2024/01/29 02:06:03;;;;;;;21.13;10.40;;;;;;;-0.93;100.00;97662.28;5079648;28;20203;-68
2024/01/29 02:08:30;;;;;;;19.27;9.03;;;;;;;-0.99;100.00;97660.84;5079307;28;20230;-68
2024/01/29 02:10:58;;;;;;;21.23;9.57;;;;;;;-0.77;100.00;97655.47;5079328;28;20681;-68
2024/01/29 02:13:26;;;;;;;20.07;9.30;;;;;;;-0.77;100.00;97647.72;5079985;28;20207;-68
2024/01/29 02:15:53;;;;;;;17.20;8.87;;;;;;;-0.94;100.00;97658.00;5079641;28;20934;-68
2024/01/29 02:18:19;;;;;;;19.90;9.60;;;;;;;-0.99;100.00;97652.25;5079153;28;20835;-68
2024/01/29 02:20:46;;;;;;;21.10;10.20;;;;;;;-0.89;100.00;97656.91;5079489;28;20233;-68
2024/01/29 02:23:14;;;;;;;19.20;9.13;;;;;;;-0.86;100.00;97653.34;5079592;28;20242;-68
2024/01/29 02:25:41;;;;;;;19.97;9.17;;;;;;;-1.12;100.00;97649.41;5079497;28;20203;-68
2024/01/29 02:28:07;;;;;;;18.00;9.00;;;;;;;-1.19;100.00;97647.19;5079092;28;20203;-68
2024/01/29 02:30:34;;;;;;;22.20;9.53;;;;;;;-1.04;100.00;97649.03;5079347;28;20200;-68
2024/01/29 02:33:00;;;;;;;18.17;8.03;;;;;;;-1.02;100.00;97653.22;5079412;28;20202;-68
2024/01/29 02:35:27;;;;;;;18.67;9.40;;;;;;;-1.07;100.00;97652.63;5079775;28;21027;-68
2024/01/29 02:37:53;;;;;;;20.50;9.77;;;;;;;-1.01;100.00;97654.06;5078555;28;20208;-68
2024/01/29 02:40:21;;;;;;;16.83;9.97;;;;;;;-0.84;100.00;97649.75;5078756;28;20303;-68
2024/01/29 02:42:48;;;;;;;18.97;8.77;;;;;;;-0.86;100.00;97646.41;5079703;28;20230;-68
2024/01/29 02:45:14;;;;;;;20.10;8.70;;;;;;;-0.94;100.00;97650.25;5079362;28;20203;-68
2024/01/29 02:47:41;;;;;;;17.93;9.13;;;;;;;-0.96;100.00;97646.91;5078108;28;20211;-68
2024/01/29 02:50:08;;;;;;;17.43;8.70;;;;;;;-1.02;100.00;97648.06;5078832;28;20604;-68
2024/01/29 02:52:35;;;;;;;15.63;7.80;;;;;;;-1.21;100.00;97647.25;5079267;28;20214;-68
2024/01/29 02:55:01;;;;;;;17.00;8.07;;;;;;;-1.16;100.00;97647.03;5079387;28;20198;-68
2024/01/29 02:57:29;;;;;;;19.17;7.57;;;;;;;-1.35;100.00;97645.38;5078573;28;20218;-68
2024/01/29 02:59:56;;;;;;;19.40;8.80;;;;;;;-1.34;100.00;97640.13;5078568;28;20224;-68
2024/01/29 03:02:22;;;;;;;19.07;8.97;;;;;;;-1.26;100.00;97643.22;5079007;28;20220;-68
2024/01/29 03:04:49;;;;;;;20.20;9.97;;;;;;;-1.17;100.00;97640.19;5079315;28;20213;-68
2024/01/29 03:07:15;;;;;;;17.03;8.13;;;;;;;-1.22;100.00;97645.56;5078217;28;20211;-68
2024/01/29 03:09:42;;;;;;;20.37;9.83;;;;;;;-1.22;100.00;97648.16;5078583;28;20244;-68
2024/01/29 03:12:09;;;;;;;18.73;9.37;;;;;;;-1.27;100.00;97648.44;5078513;28;20743;-68
2024/01/29 03:14:38;;;;;;;22.37;9.20;;;;;;;-1.04;100.00;97644.69;5078240;28;20964;-68
2024/01/29 03:17:04;;;;;;;17.67;8.70;;;;;;;-1.14;100.00;97642.63;5078377;28;20284;-68
2024/01/29 03:19:31;;;;;;;20.07;8.53;;;;;;;-1.13;100.00;97639.13;5078261;28;20233;-68
2024/01/29 03:21:58;;;;;;;17.43;8.50;;;;;;;-1.21;100.00;97636.91;5078249;28;20622;-67
2024/01/29 03:24:24;;;;;;;18.20;8.53;;;;;;;-1.31;100.00;97633.97;5079121;28;20201;-67
2024/01/29 03:26:51;;;;;;;15.67;8.57;;;;;;;-1.36;100.00;97629.03;5078546;28;20208;-67
2024/01/29 03:29:17;;;;;;;20.20;8.20;;;;;;;-1.33;100.00;97630.66;5077754;28;20591;-67
2024/01/29 03:31:45;;;;;;;20.53;9.53;;;;;;;-1.14;100.00;97627.13;5078129;28;20682;-67
2024/01/29 03:34:12;;;;;;;18.67;8.83;;;;;;;-1.30;100.00;97630.50;5079139;28;20213;-67
2024/01/29 03:36:38;;;;;;;18.17;8.80;;;;;;;-1.40;100.00;97634.41;5077918;28;20204;-67
2024/01/29 03:39:05;;;;;;;23.10;8.67;;;;;;;-1.34;100.00;97634.13;5076113;28;20237;-67
2024/01/29 03:41:34;;;;;;;17.07;7.17;;;;;;;-1.35;100.00;97647.97;5078131;28;20213;-67
2024/01/29 03:44:00;;;;;;;18.37;8.93;;;;;;;-1.37;100.00;97640.28;5078335;28;20257;-67
2024/01/29 03:46:27;;;;;;;19.57;9.50;;;;;;;-1.34;100.00;97640.13;5077873;28;20206;-67
2024/01/29 03:48:55;;;;;;;19.90;8.27;;;;;;;-1.09;100.00;97636.31;5077598;28;20229;-67
2024/01/29 03:51:21;;;;;;;17.77;8.17;;;;;;;-1.22;100.00;97634.41;5078232;28;20218;-67
2024/01/29 03:53:48;;;;;;;19.80;9.10;;;;;;;-1.31;100.00;97640.00;5078096;28;20603;-67
2024/01/29 03:56:15;;;;;;;18.00;9.00;;;;;;;-1.36;100.00;97641.13;5078158;28;20647;-67
2024/01/29 03:58:42;;;;;;;18.60;9.50;;;;;;;-1.26;100.00;97638.06;5077353;28;20231;-67
2024/01/29 04:01:08;;;;;;;17.07;8.33;;;;;;;-1.35;100.00;97637.63;5076510;28;20203;-67
2024/01/29 04:03:35;;;;;;;18.57;8.53;;;;;;;-1.26;100.00;97640.63;5078818;28;20634;-67
2024/01/29 04:06:05;;;;;;;18.17;7.93;;;;;;;-1.17;100.00;97635.84;5077921;28;20674;-67
2024/01/29 04:08:31;;;;;;;19.27;9.03;;;;;;;-1.43;100.00;97634.56;5077129;28;20425;-67
2024/01/29 04:10:58;;;;;;;15.67;7.37;;;;;;;-1.36;100.00;97641.97;5077120;28;20208;-67
2024/01/29 04:13:24;;;;;;;14.33;8.13;;;;;;;-1.28;100.00;97623.53;5077783;28;20206;-67
2024/01/29 04:15:51;;;;;;;21.33;9.17;;;;;;;-1.22;100.00;97631.81;5077588;28;20790;-67
2024/01/29 04:18:17;;;;;;;15.93;7.97;;;;;;;-1.33;100.00;97625.47;5076877;28;20513;-67
2024/01/29 04:20:44;;;;;;;11.87;6.47;;;;;;;-1.26;100.00;97627.72;5077469;28;20629;-67
2024/01/29 04:23:12;;;;;;;15.43;7.13;;;;;;;-1.22;100.00;97627.47;5076199;28;20223;-67
2024/01/29 04:25:38;;;;;;;14.13;7.43;;;;;;;-1.32;100.00;97634.88;5077288;28;20591;-67
2024/01/29 04:28:05;;;;;;;14.70;7.63;;;;;;;-1.27;100.00;97636.38;5076634;28;20210;-67
2024/01/29 04:30:31;;;;;;;19.10;8.47;;;;;;;-1.21;100.00;97636.91;5077211;28;20216;-67
2024/01/29 04:32:58;;;;;;;18.13;8.53;;;;;;;-1.37;100.00;97629.94;5076803;28;20206;-67
2024/01/29 04:35:24;;;;;;;17.63;8.30;;;;;;;-1.46;100.00;97629.56;5077610;28;20210;-67
2024/01/29 04:37:51;;;;;;;22.57;10.27;;;;;;;-1.28;100.00;97628.69;5076584;28;20214;-67
2024/01/29 04:40:18;;;;;;;17.37;8.17;;;;;;;-1.21;100.00;97623.97;5076540;28;20374;-67
2024/01/29 04:42:45;;;;;;;18.63;8.77;;;;;;;-1.41;100.00;97628.41;5077292;28;20251;-67
2024/01/29 04:45:12;;;;;;;18.43;7.77;;;;;;;-1.37;100.00;97635.13;5076894;28;20518;-67
2024/01/29 04:47:38;;;;;;;18.30;7.77;;;;;;;-1.33;100.00;97631.47;5076183;28;20204;-67
2024/01/29 04:50:06;;;;;;;19.07;8.70;;;;;;;-1.28;100.00;97629.50;5076502;28;20220;-67
2024/01/29 04:52:32;;;;;;;20.17;8.33;;;;;;;-1.30;100.00;97628.72;5076534;28;20201;-67
2024/01/29 04:54:59;;;;;;;20.47;9.23;;;;;;;-1.29;100.00;97627.84;5076586;28;20217;-68
2024/01/29 04:57:27;;;;;;;17.53;8.30;;;;;;;-1.29;100.00;97621.84;5076419;28;20214;-67
2024/01/29 04:59:54;;;;;;;21.37;9.40;;;;;;;-1.42;100.00;97631.91;5076850;28;20828;-67
2024/01/29 05:02:20;;;;;;;19.17;8.63;;;;;;;-1.40;100.00;97630.09;5076288;28;20247;-67
2024/01/29 05:04:47;;;;;;;16.60;8.90;;;;;;;-1.30;100.00;97635.66;5077060;28;20233;-67
2024/01/29 05:07:13;;;;;;;20.23;9.40;;;;;;;-1.28;100.00;97629.50;5076106;28;20212;-67
2024/01/29 05:09:40;;;;;;;20.90;8.90;;;;;;;-1.40;100.00;97634.41;5076060;28;20230;-67
2024/01/29 05:12:07;;;;;;;20.00;9.47;;;;;;;-1.37;100.00;97635.13;5076415;28;20734;-67
2024/01/29 05:14:35;;;;;;;16.93;7.63;;;;;;;-1.17;100.00;97632.44;5076711;28;20294;-67
2024/01/29 05:17:01;;;;;;;18.10;7.07;;;;;;;-1.43;100.00;97637.16;5076672;28;20202;-67
2024/01/29 05:19:28;;;;;;;20.77;8.90;;;;;;;-1.39;100.00;97630.94;5075876;28;20226;-67
2024/01/29 05:21:54;;;;;;;15.47;8.07;;;;;;;-1.22;100.00;97639.56;5076144;28;20209;-67
2024/01/29 05:24:21;;;;;;;14.20;7.23;;;;;;;-1.23;100.00;97631.88;5076320;28;20354;-67
2024/01/29 05:26:47;;;;;;;22.07;8.77;;;;;;;-1.30;100.00;97635.66;5076692;28;20206;-67
2024/01/29 05:29:14;;;;;;;18.30;7.77;;;;;;;-1.36;100.00;97635.94;5075063;28;20243;-67
2024/01/29 05:31:42;;;;;;;19.63;8.60;;;;;;;-1.27;100.00;97630.34;5076103;28;20228;-67
2024/01/29 05:34:08;;;;;;;17.30;8.10;;;;;;;-1.34;100.00;97634.13;5076217;28;20202;-67
2024/01/29 05:36:35;;;;;;;16.67;7.27;;;;;;;-1.29;100.00;97629.59;5076570;28;20214;-67
2024/01/29 05:39:01;;;;;;;21.00;9.77;;;;;;;-1.26;100.00;97637.19;5075175;28;20243;-67
2024/01/29 05:41:28;;;;;;;18.60;8.50;;;;;;;-1.45;100.00;97641.53;5076342;28;20207;-67
2024/01/29 05:43:54;;;;;;;24.50;8.27;;;;;;;-1.37;100.00;97639.47;5075754;28;20233;-67
2024/01/29 05:46:21;;;;;;;19.03;8.33;;;;;;;-1.35;100.00;97640.22;5076142;28;20210;-67
2024/01/29 05:48:49;;;;;;;18.17;9.00;;;;;;;-1.10;100.00;97642.41;5075623;28;20227;-67
2024/01/29 05:51:16;;;;;;;28.33;8.70;;;;;;;-1.35;100.00;97642.78;5075647;28;20673;-68
2024/01/29 05:53:42;;;;;;;18.60;9.23;;;;;;;-1.36;100.00;97644.56;5075829;28;20206;-67
2024/01/29 05:56:09;;;;;;;16.13;8.13;;;;;;;-1.36;100.00;97651.44;5076513;28;20609;-67
2024/01/29 05:58:36;;;;;;;17.47;8.13;;;;;;;-1.40;100.00;97655.09;5075343;28;20235;-67
2024/01/29 06:01:03;;;;;;;21.87;8.53;;;;;;;-1.28;100.00;97654.53;5075496;28;20205;-67
2024/01/29 06:03:30;;;;;;;17.27;8.23;;;;;;;-1.35;100.00;97653.13;5076040;28;20276;-67
2024/01/29 06:05:58;;;;;;;19.33;8.30;;;;;;;-1.23;100.00;97657.72;5075544;28;20643;-69
2024/01/29 06:08:24;;;;;;;18.23;8.33;;;;;;;-1.29;100.00;97658.03;5075140;28;20233;-67
2024/01/29 06:10:53;;;;;;;19.00;8.13;;;;;;;-1.38;100.00;97654.13;5075324;28;20198;-67
2024/01/29 06:13:21;;;;;;;18.97;8.93;;;;;;;-1.35;100.00;97658.31;5076075;28;20203;-67
2024/01/29 06:15:48;;;;;;;17.87;7.97;;;;;;;-1.36;100.00;97664.38;5076042;28;20207;-67
2024/01/29 06:18:14;;;;;;;23.13;9.90;;;;;;;-1.45;100.00;97662.22;5075066;28;20220;-68
2024/01/29 06:20:41;;;;;;;21.90;9.70;;;;;;;-1.44;100.00;97658.72;5075349;28;20244;-67
2024/01/29 06:23:09;;;;;;;20.30;8.77;;;;;;;-1.26;100.00;97668.22;5075028;28;20665;-67
2024/01/29 06:25:36;;;;;;;24.97;9.97;;;;;;;-1.43;100.00;97660.41;5075903;28;20214;-67
2024/01/29 06:28:02;;;;;;;17.33;9.10;;;;;;;-1.42;100.00;97656.94;5075644;28;20228;-67
2024/01/29 06:30:29;;;;;;;22.73;9.17;;;;;;;-1.35;100.00;97653.13;5077242;28;20647;-68
2024/01/29 06:32:57;;;;;;;18.67;8.73;;;;;;;-1.33;100.00;97656.50;5075574;28;20197;-68
2024/01/29 06:35:23;;;;;;;18.37;8.87;;;;;;;-1.37;100.00;97657.56;5075825;28;20204;-68
2024/01/29 06:37:50;;;;;;;20.60;9.07;;;;;;;-1.32;100.00;97660.75;5076322;28;20630;-68
2024/01/29 06:40:18;;;;;;;19.20;8.17;;;;;;;-1.26;100.00;97663.03;5075392;28;20613;-68
2024/01/29 06:42:44;;;;;;;23.37;8.83;;;;;;;-1.49;100.00;97663.28;5075570;28;20738;-68
2024/01/29 06:45:11;;;;;;;19.43;8.17;;;;;;;-1.50;100.00;97666.75;5076333;28;20291;-68
2024/01/29 06:47:37;;;;;;;23.43;9.20;;;;;;;-1.46;100.00;97663.16;5077777;28;20208;-68
2024/01/29 06:50:04;;;;;;;19.93;9.37;;;;;;;-1.32;100.00;97660.75;5078960;28;20238;-68
2024/01/29 06:52:31;;;;;;;21.67;9.57;;;;;;;-1.34;100.00;97662.56;5080051;28;20226;-68
2024/01/29 06:54:57;;;;;;;16.43;7.33;;;;;;;-1.32;100.00;97663.31;5079795;28;20207;-68
2024/01/29 06:57:25;;;;;;;15.87;7.83;;;;;;;-1.18;100.00;97664.38;5078454;28;20205;-68
2024/01/29 06:59:52;;;;;;;18.43;8.33;;;;;;;-1.30;100.00;97666.69;5079833;28;20220;-68
2024/01/29 07:02:18;;;;;;;20.50;9.13;;;;;;;-1.35;100.00;97677.25;5079572;28;20215;-68
2024/01/29 07:04:45;;;;;;;19.13;8.77;;;;;;;-1.41;100.00;97679.25;5080122;28;20575;-68
2024/01/29 07:07:12;;;;;;;19.10;9.50;;;;;;;-1.32;100.00;97676.25;5080015;28;20200;-68
2024/01/29 07:09:38;;;;;;;19.83;8.60;;;;;;;-1.27;100.00;97682.06;5079532;28;20223;-68
2024/01/29 07:12:05;;;;;;;23.50;7.90;;;;;;;-1.27;100.00;97687.22;5079400;28;20199;-68
2024/01/29 07:14:34;;;;;;;17.40;8.40;;;;;;;-1.21;100.00;97680.88;5080074;28;20210;-68
2024/01/29 07:17:01;;;;;;;19.70;9.07;;;;;;;-1.30;100.00;97697.72;5078975;28;20202;-68
2024/01/29 07:19:33;;;;;;;15.30;7.80;;;;;;;-1.26;100.00;97694.94;5079377;28;20227;-68
2024/01/29 07:21:59;;;;;;;17.70;8.50;;;;;;;-1.17;100.00;97689.34;5077959;28;20239;-68
2024/01/29 07:24:26;;;;;;;15.33;7.70;;;;;;;-1.17;100.00;97692.75;5079730;28;20230;-68
2024/01/29 07:26:52;;;;;;;16.80;8.50;;;;;;;-0.97;100.00;97694.38;5079074;28;20203;-68
2024/01/29 07:29:19;;;;;;;16.57;7.73;;;;;;;-0.97;100.00;97690.06;5077996;28;20223;-67
2024/01/29 07:31:47;;;;;;;16.53;7.80;;;;;;;-0.83;100.00;97692.81;5079016;28;20207;-67
2024/01/29 07:34:13;;;;;;;14.33;7.23;;;;;;;-0.93;100.00;97695.91;5078990;28;20199;-67
2024/01/29 07:36:40;;;;;;;24.20;8.27;;;;;;;-0.78;100.00;97693.44;5078705;28;20209;-67
2024/01/29 07:39:06;;;;;;;16.17;6.57;;;;;;;-0.92;100.00;97690.66;5077942;28;20721;-67
2024/01/29 07:41:33;;;;;;;15.63;6.93;;;;;;;-0.79;100.00;97691.78;5078960;28;20229;-67
2024/01/29 07:43:59;;;;;;;24.00;7.20;;;;;;;-0.65;100.00;97693.69;5078077;28;20223;-68
2024/01/29 07:46:26;;;;;;;16.87;6.87;;;;;;;-0.59;100.00;97686.47;5078305;28;20689;-67
2024/01/29 07:48:54;;;;;;;14.43;7.70;;;;;;;-0.33;100.00;97696.34;5077725;28;20219;-67
2024/01/29 07:51:20;;;;;;;14.17;7.30;;;;;;;-0.40;100.00;97701.00;5077835;28;20198;-67
2024/01/29 07:53:47;;;;;;;17.47;7.13;;;;;;;-0.28;100.00;97694.38;5078343;28;20202;-67
2024/01/29 07:56:13;;;;;;;19.77;7.97;;;;;;;-0.15;100.00;97696.28;5078414;28;20204;-67
2024/01/29 07:58:40;;;;;;;17.77;8.07;;;;;;;-0.08;100.00;97694.22;5077544;28;20226;-67
2024/01/29 08:01:06;;;;;;;17.23;7.53;;;;;;;-0.08;100.00;97691.63;5078554;28;20203;-68
2024/01/29 08:03:33;;;;;;;23.67;9.10;;;;;;;0.04;100.00;97692.69;5078180;28;21082;-67
2024/01/29 08:06:01;;;;;;;14.60;6.90;;;;;;;0.27;100.00;97694.91;5077843;28;20200;-67
2024/01/29 08:08:28;;;;;;;19.60;8.37;;;;;;;0.20;100.00;97688.38;5077590;28;20223;-68
2024/01/29 08:10:56;;;;;;;22.73;8.13;;;;;;;0.25;100.00;97691.56;5078934;28;20291;-68
2024/01/29 08:13:22;;;;;;;16.77;7.20;;;;;;;0.27;100.00;97689.75;5078442;28;20200;-68
2024/01/29 08:15:49;;;;;;;17.90;7.63;;;;;;;0.40;100.00;97688.16;5077809;28;20210;-67
2024/01/29 08:18:16;;;;;;;18.07;7.50;;;;;;;0.43;100.00;97684.59;5077192;28;20235;-68
2024/01/29 08:20:44;;;;;;;20.10;7.90;;;;;;;0.54;100.00;97683.09;5078067;28;20210;-67
2024/01/29 08:23:12;;;;;;;17.57;8.37;;;;;;;0.80;100.00;97685.13;5077217;28;20235;-67
2024/01/29 08:25:39;;;;;;;15.60;7.17;;;;;;;0.71;100.00;97685.63;5077661;28;20242;-68
2024/01/29 08:28:06;;;;;;;17.83;7.40;;;;;;;0.86;100.00;97690.81;5077771;28;20204;-68
2024/01/29 08:30:32;;;;;;;11.07;5.90;;;;;;;0.87;100.00;97686.47;5075231;28;20688;-67
2024/01/29 08:32:59;;;;;;;8.83;4.93;;;;;;;1.67;100.00;97689.63;5076568;28;20200;-67
2024/01/29 08:35:25;;;;;;;8.00;4.13;;;;;;;3.27;100.00;97683.94;5077969;28;20204;-67
2024/01/29 08:37:52;;;;;;;13.03;6.07;;;;;;;3.27;100.00;97678.72;5077140;28;20200;-67
2024/01/29 08:40:20;;;;;;;16.20;6.87;;;;;;;3.07;100.00;97680.91;5076949;28;20439;-68
2024/01/29 08:42:47;;;;;;;17.67;7.67;;;;;;;2.37;100.00;97681.91;5077689;28;20204;-67
2024/01/29 08:45:15;;;;;;;16.33;7.73;;;;;;;2.40;100.00;97684.34;5077022;28;20216;-67
2024/01/29 08:47:41;;;;;;;11.33;5.27;;;;;;;2.14;100.00;97688.50;5076661;28;20200;-67
2024/01/29 08:50:09;;;;;;;11.37;5.93;;;;;;;2.10;100.00;97686.16;5077306;28;20224;-67
2024/01/29 08:52:35;;;;;;;14.00;7.40;;;;;;;2.04;100.00;97684.78;5076889;28;20203;-67
2024/01/29 08:55:02;;;;;;;8.57;5.27;;;;;;;2.10;100.00;97686.16;5077271;28;20211;-67
2024/01/29 08:57:30;;;;;;;11.37;5.70;;;;;;;1.94;100.00;97691.44;5077106;28;20203;-67
2024/01/29 08:59:56;;;;;;;10.60;5.43;;;;;;;1.94;100.00;97696.63;5077152;28;20306;-67
2024/01/29 09:02:27;;;;;;;14.93;5.70;;;;;;;2.18;100.00;97694.38;5077103;28;20201;-67
2024/01/29 09:04:53;;;;;;;10.37;5.03;;;;;;;2.07;100.00;97697.56;5077166;28;20226;-67
2024/01/29 09:07:20;;;;;;;16.17;5.33;;;;;;;2.15;100.00;97699.72;5076312;28;20286;-67
2024/01/29 09:09:47;;;;;;;8.60;4.77;;;;;;;2.36;100.00;97693.25;5076402;28;20216;-67
2024/01/29 09:12:13;;;;;;;10.33;4.90;;;;;;;2.35;100.00;97686.38;5077454;28;20198;-68
2024/01/29 09:14:41;;;;;;;8.97;5.20;;;;;;;2.65;100.00;97691.38;5077068;28;20207;-67
2024/01/29 09:17:08;;;;;;;10.00;5.30;;;;;;;2.64;100.00;97697.53;5076199;28;20209;-68
2024/01/29 09:19:34;;;;;;;10.80;5.90;;;;;;;2.58;100.00;97697.91;5076732;28;20224;-67
2024/01/29 09:22:01;;;;;;;15.43;7.23;;;;;;;2.78;100.00;97694.91;5077675;28;20196;-67
2024/01/29 09:24:27;;;;;;;13.77;6.50;;;;;;;2.54;100.00;97696.41;5076202;28;21337;-67
2024/01/29 09:26:54;;;;;;;10.40;6.27;;;;;;;2.88;100.00;97693.41;5076589;28;20201;-68
2024/01/29 09:29:20;;;;;;;13.10;7.17;;;;;;;2.98;100.00;97694.50;5076872;28;20225;-67
2024/01/29 09:31:48;;;;;;;17.97;8.40;;;;;;;3.24;100.00;97701.50;5076327;28;21146;-68
2024/01/29 09:34:15;;;;;;;19.97;9.40;;;;;;;3.24;100.00;97711.94;5077665;28;20203;-67
2024/01/29 09:36:41;;;;;;;18.60;8.30;;;;;;;3.14;100.00;97705.63;5077789;28;20291;-67
2024/01/29 09:39:08;;;;;;;18.63;8.30;;;;;;;3.31;100.00;97708.84;5075996;28;20724;-67
2024/01/29 09:41:35;;;;;;;18.50;8.00;;;;;;;3.35;100.00;97715.53;5076512;28;20198;-67
2024/01/29 09:44:06;;;;;;;12.83;7.03;;;;;;;3.62;100.00;97710.31;5076614;28;20276;-67
2024/01/29 09:46:37;;;;;;;14.70;6.23;;;;;;;3.81;100.00;97709.84;5076053;28;20203;-67
2024/01/29 09:49:05;;;;;;;11.40;6.17;;;;;;;3.89;100.00;97704.13;5075602;28;20233;-67
2024/01/29 09:51:32;;;;;;;14.90;6.47;;;;;;;3.86;100.00;97699.94;5076926;28;20199;-67
2024/01/29 09:54:00;;;;;;;10.30;5.17;;;;;;;4.04;100.00;97697.91;5076439;28;20225;-67
2024/01/29 09:56:27;;;;;;;10.73;4.67;;;;;;;3.85;100.00;97706.09;5073871;28;20202;-67
2024/01/29 09:58:53;;;;;;;10.60;5.23;;;;;;;4.09;100.00;97709.69;5075774;28;20215;-67
2024/01/29 10:01:22;;;;;;;8.77;5.10;;;;;;;4.31;100.00;97699.47;5075859;28;20207;-67
2024/01/29 10:03:48;;;;;;;9.30;5.00;;;;;;;4.26;100.00;97705.03;5075757;28;20606;-67
2024/01/29 10:06:16;;;;;;;10.17;4.73;;;;;;;4.63;100.00;97705.94;5076268;28;20306;-67
2024/01/29 10:08:43;;;;;;;6.30;3.63;;;;;;;4.48;100.00;97707.00;5076358;28;20218;-67
2024/01/29 10:11:10;;;;;;;6.80;4.07;;;;;;;4.64;100.00;97707.63;5076383;28;20217;-67
2024/01/29 10:13:36;;;;;;;7.83;4.20;;;;;;;4.82;100.00;97708.03;5076346;28;20207;-67
2024/01/29 10:16:03;;;;;;;9.20;4.30;;;;;;;4.82;100.00;97695.91;5076660;28;20199;-67
2024/01/29 10:18:30;;;;;;;8.73;3.70;;;;;;;4.70;100.00;97707.19;5075835;28;20216;-67
2024/01/29 10:21:01;;;;;;;8.93;4.20;;;;;;;5.03;100.00;97705.69;5076195;28;20203;-67
2024/01/29 10:23:29;;;;;;;10.53;5.03;;;;;;;5.05;100.00;97701.19;5080179;28;20206;-68
2024/01/29 10:25:56;;;;;;;7.97;4.60;;;;;;;4.87;100.00;97695.47;5080398;28;20254;-68
2024/01/29 10:28:23;;;;;;;8.60;4.00;;;;;;;5.14;100.00;97700.53;5079369;28;20230;-67
2024/01/29 10:30:50;;;;;;;10.67;4.73;;;;;;;5.29;100.00;97702.88;5080379;28;20207;-67
2024/01/29 10:33:17;;;;;;;10.43;4.70;;;;;;;5.18;100.00;97695.00;5080776;28;20250;-67
2024/01/29 10:35:43;;;;;;;10.30;5.03;;;;;;;5.30;100.00;97696.72;5079829;28;20196;-67
2024/01/29 10:38:15;;;;;;;8.27;4.37;;;;;;;5.64;100.00;97694.16;5078798;28;20203;-67
2024/01/29 10:40:45;;;;;;;4.90;3.30;;;;;;;5.55;100.00;97687.00;5080009;28;20801;-67
2024/01/29 10:43:17;;;;;;;11.10;4.33;;;;;;;5.55;100.00;97688.78;5080197;28;20207;-67
2024/01/29 10:45:47;;;;;;;7.43;4.00;;;;;;;5.69;100.00;97683.34;5079834;28;20227;-67
2024/01/29 10:48:20;;;;;;;11.63;5.00;;;;;;;5.72;100.00;97676.13;5079554;28;20761;-68
2024/01/29 10:50:47;;;;;;;8.80;4.70;;;;;;;5.76;100.00;97671.53;5079901;28;21022;-67
2024/01/29 10:53:16;;;;;;;7.20;3.67;;;;;;;6.05;100.00;97673.66;5080482;28;21095;-68
2024/01/29 10:55:45;;;;;;;6.97;3.60;;;;;;;6.29;100.00;97677.88;5080477;28;20208;-67
2024/01/29 10:58:13;;;;;;;8.77;4.87;;;;;;;6.22;100.00;97679.31;5079150;28;20506;-67
2024/01/29 11:00:41;;;;;;;6.47;4.03;;;;;;;6.00;100.00;97669.72;5079648;28;20208;-67
2024/01/29 11:03:10;;;;;;;8.57;4.67;;;;;;;6.24;100.00;97664.31;5079583;28;20195;-67
2024/01/29 11:05:38;;;;;;;8.53;3.87;;;;;;;6.35;100.00;97666.94;5079737;28;20310;-67
2024/01/29 11:08:10;;;;;;;8.73;4.17;;;;;;;6.35;100.00;97669.56;5078455;28;20200;-67
2024/01/29 11:10:37;;;;;;;11.80;4.50;;;;;;;6.33;100.00;97674.06;5079415;28;20200;-68
2024/01/29 11:13:08;;;;;;;7.63;3.77;;;;;;;6.63;100.00;97671.72;5079846;28;20199;-67
2024/01/29 11:15:34;;;;;;;5.87;3.13;;;;;;;6.62;100.00;97662.22;5079025;28;20196;-68
2024/01/29 11:18:01;;;;;;;11.03;3.63;;;;;;;6.60;100.00;97661.50;5078306;28;20207;-67